sensor_id;sensor_type;location;lat;lon;timestamp;temperature;humidity
77467;DHT22;66564;42.482;25.548;2024-01-30T00:01:17;0.97;56.09
77467;DHT22;66564;42.482;25.548;2024-01-30T00:03:42;0.99;56.21
77467;DHT22;66564;42.482;25.548;2024-01-30T00:06:08;0.91;56.60
77467;DHT22;66564;42.482;25.548;2024-01-30T00:08:34;0.84;57.36
77467;DHT22;66564;42.482;25.548;2024-01-30T00:11:00;0.86;57.80
77467;DHT22;66564;42.482;25.548;2024-01-30T00:13:26;0.80;58.17
77467;DHT22;66564;42.482;25.548;2024-01-30T00:15:52;0.81;58.22
77467;DHT22;66564;42.482;25.548;2024-01-30T00:18:17;0.83;58.39
77467;DHT22;66564;42.482;25.548;2024-01-30T00:20:44;0.83;58.74
77467;DHT22;66564;42.482;25.548;2024-01-30T00:23:09;0.87;59.06
77467;DHT22;66564;42.482;25.548;2024-01-30T00:25:35;0.89;59.13
77467;DHT22;66564;42.482;25.548;2024-01-30T00:28:00;0.87;59.61
77467;DHT22;66564;42.482;25.548;2024-01-30T00:30:26;0.81;59.73
77467;DHT22;66564;42.482;25.548;2024-01-30T00:32:51;0.81;60.10
77467;DHT22;66564;42.482;25.548;2024-01-30T00:35:17;0.81;59.91
77467;DHT22;66564;42.482;25.548;2024-01-30T00:37:42;0.75;60.24
77467;DHT22;66564;42.482;25.548;2024-01-30T00:40:08;0.70;60.43
77467;DHT22;66564;42.482;25.548;2024-01-30T00:42:35;0.81;60.35
77467;DHT22;66564;42.482;25.548;2024-01-30T00:45:01;0.67;60.60
77467;DHT22;66564;42.482;25.548;2024-01-30T00:47:26;0.66;60.71
77467;DHT22;66564;42.482;25.548;2024-01-30T00:49:52;0.62;60.76
77467;DHT22;66564;42.482;25.548;2024-01-30T00:52:17;0.77;60.62
77467;DHT22;66564;42.482;25.548;2024-01-30T00:54:43;0.83;60.46
77467;DHT22;66564;42.482;25.548;2024-01-30T00:57:08;0.84;60.44
77467;DHT22;66564;42.482;25.548;2024-01-30T00:59:34;0.94;60.28
77467;DHT22;66564;42.482;25.548;2024-01-30T01:01:59;0.99;59.95
77467;DHT22;66564;42.482;25.548;2024-01-30T01:04:25;1.01;59.51
77467;DHT22;66564;42.482;25.548;2024-01-30T01:06:52;1.07;59.64
77467;DHT22;66564;42.482;25.548;2024-01-30T01:09:17;1.14;59.31
77467;DHT22;66564;42.482;25.548;2024-01-30T01:11:43;1.11;59.14
77467;DHT22;66564;42.482;25.548;2024-01-30T01:14:08;1.11;59.28
77467;DHT22;66564;42.482;25.548;2024-01-30T01:16:34;1.14;59.28
77467;DHT22;66564;42.482;25.548;2024-01-30T01:18:59;1.21;59.25
77467;DHT22;66564;42.482;25.548;2024-01-30T01:21:25;1.24;58.93
77467;DHT22;66564;42.482;25.548;2024-01-30T01:23:51;1.24;58.89
77467;DHT22;66564;42.482;25.548;2024-01-30T01:26:16;1.31;58.81
77467;DHT22;66564;42.482;25.548;2024-01-30T01:28:42;1.35;58.75
77467;DHT22;66564;42.482;25.548;2024-01-30T01:31:07;1.37;58.56
77467;DHT22;66564;42.482;25.548;2024-01-30T01:33:33;1.31;58.24
77467;DHT22;66564;42.482;25.548;2024-01-30T01:36:00;1.27;58.27
77467;DHT22;66564;42.482;25.548;2024-01-30T01:38:28;1.24;58.55
77467;DHT22;66564;42.482;25.548;2024-01-30T01:40:53;1.27;58.55
77467;DHT22;66564;42.482;25.548;2024-01-30T01:43:20;1.31;58.62
77467;DHT22;66564;42.482;25.548;2024-01-30T01:45:45;1.26;58.63
77467;DHT22;66564;42.482;25.548;2024-01-30T01:48:11;1.28;58.60
77467;DHT22;66564;42.482;25.548;2024-01-30T01:50:38;1.24;58.79
77467;DHT22;66564;42.482;25.548;2024-01-30T01:53:07;1.27;58.24
77467;DHT22;66564;42.482;25.548;2024-01-30T01:55:34;1.28;58.34
77467;DHT22;66564;42.482;25.548;2024-01-30T01:58:00;1.31;58.32
77467;DHT22;66564;42.482;25.548;2024-01-30T02:00:26;1.32;57.95
77467;DHT22;66564;42.482;25.548;2024-01-30T02:02:52;1.28;58.08
77467;DHT22;66564;42.482;25.548;2024-01-30T02:05:19;1.35;57.95
77467;DHT22;66564;42.482;25.548;2024-01-30T02:07:45;1.31;58.07
77467;DHT22;66564;42.482;25.548;2024-01-30T02:10:10;1.31;58.11
77467;DHT22;66564;42.482;25.548;2024-01-30T02:12:36;1.34;58.26
77467;DHT22;66564;42.482;25.548;2024-01-30T02:15:01;1.37;58.34
77467;DHT22;66564;42.482;25.548;2024-01-30T02:17:27;1.41;58.36
77467;DHT22;66564;42.482;25.548;2024-01-30T02:19:52;1.47;58.39
77467;DHT22;66564;42.482;25.548;2024-01-30T02:22:19;1.54;58.22
77467;DHT22;66564;42.482;25.548;2024-01-30T02:24:45;1.56;57.87
77467;DHT22;66564;42.482;25.548;2024-01-30T02:27:10;1.59;57.94
77467;DHT22;66564;42.482;25.548;2024-01-30T02:29:36;1.51;58.15
77467;DHT22;66564;42.482;25.548;2024-01-30T02:32:02;1.52;58.34
77467;DHT22;66564;42.482;25.548;2024-01-30T02:34:28;1.59;58.04
77467;DHT22;66564;42.482;25.548;2024-01-30T02:36:53;1.64;57.96
77467;DHT22;66564;42.482;25.548;2024-01-30T02:39:19;1.64;57.67
77467;DHT22;66564;42.482;25.548;2024-01-30T02:41:45;1.59;57.68
77467;DHT22;66564;42.482;25.548;2024-01-30T02:44:10;1.50;58.01
77467;DHT22;66564;42.482;25.548;2024-01-30T02:46:36;1.41;58.27
77467;DHT22;66564;42.482;25.548;2024-01-30T02:49:01;1.37;58.59
77467;DHT22;66564;42.482;25.548;2024-01-30T02:51:27;1.44;58.47
77467;DHT22;66564;42.482;25.548;2024-01-30T02:53:52;1.54;58.29
77467;DHT22;66564;42.482;25.548;2024-01-30T02:56:18;1.52;58.35
77467;DHT22;66564;42.482;25.548;2024-01-30T02:58:43;1.38;58.44
77467;DHT22;66564;42.482;25.548;2024-01-30T03:01:08;1.35;58.73
77467;DHT22;66564;42.482;25.548;2024-01-30T03:03:34;1.51;58.49
77467;DHT22;66564;42.482;25.548;2024-01-30T03:06:01;1.26;58.65
77467;DHT22;66564;42.482;25.548;2024-01-30T03:08:27;1.32;58.99
77467;DHT22;66564;42.482;25.548;2024-01-30T03:10:52;1.32;59.28
77467;DHT22;66564;42.482;25.548;2024-01-30T03:13:18;1.35;59.42
77467;DHT22;66564;42.482;25.548;2024-01-30T03:15:44;1.31;58.72
77467;DHT22;66564;42.482;25.548;2024-01-30T03:18:10;1.23;58.97
77467;DHT22;66564;42.482;25.548;2024-01-30T03:20:35;1.34;58.96
77467;DHT22;66564;42.482;25.548;2024-01-30T03:23:01;1.38;58.71
77467;DHT22;66564;42.482;25.548;2024-01-30T03:25:26;1.42;58.59
77467;DHT22;66564;42.482;25.548;2024-01-30T03:27:52;1.48;58.47
77467;DHT22;66564;42.482;25.548;2024-01-30T03:30:18;1.54;58.05
77467;DHT22;66564;42.482;25.548;2024-01-30T03:32:43;1.50;57.86
77467;DHT22;66564;42.482;25.548;2024-01-30T03:35:09;1.41;58.00
77467;DHT22;66564;42.482;25.548;2024-01-30T03:37:35;1.40;58.19
77467;DHT22;66564;42.482;25.548;2024-01-30T03:40:01;1.45;58.40
77467;DHT22;66564;42.482;25.548;2024-01-30T03:42:26;1.50;58.23
77467;DHT22;66564;42.482;25.548;2024-01-30T03:44:52;1.54;58.12
77467;DHT22;66564;42.482;25.548;2024-01-30T03:47:19;1.52;58.14
77467;DHT22;66564;42.482;25.548;2024-01-30T03:49:45;1.52;58.00
77467;DHT22;66564;42.482;25.548;2024-01-30T03:52:11;1.40;58.22
77467;DHT22;66564;42.482;25.548;2024-01-30T03:54:36;1.51;58.29
77467;DHT22;66564;42.482;25.548;2024-01-30T03:57:02;1.42;58.58
77467;DHT22;66564;42.482;25.548;2024-01-30T03:59:27;1.32;59.31
77467;DHT22;66564;42.482;25.548;2024-01-30T04:01:53;1.28;59.70
77467;DHT22;66564;42.482;25.548;2024-01-30T04:04:18;1.32;59.63
77467;DHT22;66564;42.482;25.548;2024-01-30T04:06:44;1.44;59.34
77467;DHT22;66564;42.482;25.548;2024-01-30T04:09:11;1.28;59.82
77467;DHT22;66564;42.482;25.548;2024-01-30T04:11:36;1.30;60.16
77467;DHT22;66564;42.482;25.548;2024-01-30T04:14:02;1.30;60.37
77467;DHT22;66564;42.482;25.548;2024-01-30T04:16:27;1.30;60.17
77467;DHT22;66564;42.482;25.548;2024-01-30T04:18:53;1.27;60.27
77467;DHT22;66564;42.482;25.548;2024-01-30T04:21:20;1.28;60.40
77467;DHT22;66564;42.482;25.548;2024-01-30T04:23:46;1.31;60.08
77467;DHT22;66564;42.482;25.548;2024-01-30T04:26:11;1.31;60.17
77467;DHT22;66564;42.482;25.548;2024-01-30T04:28:36;1.34;60.54
77467;DHT22;66564;42.482;25.548;2024-01-30T04:31:02;1.31;60.73
77467;DHT22;66564;42.482;25.548;2024-01-30T04:33:27;1.38;60.70
77467;DHT22;66564;42.482;25.548;2024-01-30T04:35:53;1.28;61.02
77467;DHT22;66564;42.482;25.548;2024-01-30T04:38:19;1.31;60.96
77467;DHT22;66564;42.482;25.548;2024-01-30T04:40:45;1.28;61.39
77467;DHT22;66564;42.482;25.548;2024-01-30T04:43:10;1.40;61.33
77467;DHT22;66564;42.482;25.548;2024-01-30T04:45:36;1.41;61.32
77467;DHT22;66564;42.482;25.548;2024-01-30T04:48:01;1.56;61.01
77467;DHT22;66564;42.482;25.548;2024-01-30T04:50:26;1.41;61.15
77467;DHT22;66564;42.482;25.548;2024-01-30T04:52:52;1.38;61.47
77467;DHT22;66564;42.482;25.548;2024-01-30T04:55:17;1.35;61.43
77467;DHT22;66564;42.482;25.548;2024-01-30T04:57:43;1.35;61.47
77467;DHT22;66564;42.482;25.548;2024-01-30T05:00:09;1.38;61.50
77467;DHT22;66564;42.482;25.548;2024-01-30T05:02:35;1.35;61.57
77467;DHT22;66564;42.482;25.548;2024-01-30T05:05:00;1.41;61.48
77467;DHT22;66564;42.482;25.548;2024-01-30T05:07:25;1.44;61.00
77467;DHT22;66564;42.482;25.548;2024-01-30T05:09:51;1.38;61.18
77467;DHT22;66564;42.482;25.548;2024-01-30T05:12:17;1.47;60.72
77467;DHT22;66564;42.482;25.548;2024-01-30T05:14:42;1.40;61.05
77467;DHT22;66564;42.482;25.548;2024-01-30T05:17:08;1.31;61.60
77467;DHT22;66564;42.482;25.548;2024-01-30T05:19:35;1.26;62.08
77467;DHT22;66564;42.482;25.548;2024-01-30T05:22:01;1.32;61.90
77467;DHT22;66564;42.482;25.548;2024-01-30T05:24:26;1.21;62.33
77467;DHT22;66564;42.482;25.548;2024-01-30T05:26:52;1.03;63.06
77467;DHT22;66564;42.482;25.548;2024-01-30T05:29:17;1.05;63.28
77467;DHT22;66564;42.482;25.548;2024-01-30T05:31:43;1.11;63.23
77467;DHT22;66564;42.482;25.548;2024-01-30T05:34:08;1.14;63.37
77467;DHT22;66564;42.482;25.548;2024-01-30T05:36:35;1.16;63.57
77467;DHT22;66564;42.482;25.548;2024-01-30T05:39:00;1.19;63.35
77467;DHT22;66564;42.482;25.548;2024-01-30T05:41:26;1.26;63.20
77467;DHT22;66564;42.482;25.548;2024-01-30T05:43:51;1.34;63.02
77467;DHT22;66564;42.482;25.548;2024-01-30T05:46:20;1.19;63.28
77467;DHT22;66564;42.482;25.548;2024-01-30T05:48:45;1.24;63.45
77467;DHT22;66564;42.482;25.548;2024-01-30T05:51:11;1.20;63.62
77467;DHT22;66564;42.482;25.548;2024-01-30T05:53:36;1.21;63.54
77467;DHT22;66564;42.482;25.548;2024-01-30T05:56:02;1.27;63.77
77467;DHT22;66564;42.482;25.548;2024-01-30T05:58:28;1.32;63.56
77467;DHT22;66564;42.482;25.548;2024-01-30T06:00:54;1.35;63.63
77467;DHT22;66564;42.482;25.548;2024-01-30T06:03:19;1.38;63.21
77467;DHT22;66564;42.482;25.548;2024-01-30T06:05:45;1.47;63.15
77467;DHT22;66564;42.482;25.548;2024-01-30T06:08:10;1.38;63.24
77467;DHT22;66564;42.482;25.548;2024-01-30T06:10:36;1.32;63.20
77467;DHT22;66564;42.482;25.548;2024-01-30T06:13:01;1.30;63.55
77467;DHT22;66564;42.482;25.548;2024-01-30T06:15:27;1.34;63.51
77467;DHT22;66564;42.482;25.548;2024-01-30T06:17:59;1.37;63.26
77467;DHT22;66564;42.482;25.548;2024-01-30T06:20:24;1.37;63.14
77467;DHT22;66564;42.482;25.548;2024-01-30T06:22:50;1.35;63.24
77467;DHT22;66564;42.482;25.548;2024-01-30T06:25:15;1.42;63.07
77467;DHT22;66564;42.482;25.548;2024-01-30T06:27:42;1.41;62.78
77467;DHT22;66564;42.482;25.548;2024-01-30T06:30:08;1.37;62.98
77467;DHT22;66564;42.482;25.548;2024-01-30T06:32:36;1.34;63.13
77467;DHT22;66564;42.482;25.548;2024-01-30T06:35:01;1.41;63.01
77467;DHT22;66564;42.482;25.548;2024-01-30T06:37:27;1.45;62.93
77467;DHT22;66564;42.482;25.548;2024-01-30T06:39:53;1.44;62.74
77467;DHT22;66564;42.482;25.548;2024-01-30T06:42:19;1.50;63.15
77467;DHT22;66564;42.482;25.548;2024-01-30T06:44:44;1.52;62.93
77467;DHT22;66564;42.482;25.548;2024-01-30T06:47:10;1.58;62.67
77467;DHT22;66564;42.482;25.548;2024-01-30T06:49:35;1.62;62.48
77467;DHT22;66564;42.482;25.548;2024-01-30T06:52:05;1.66;61.91
77467;DHT22;66564;42.482;25.548;2024-01-30T06:54:30;1.66;61.73
77467;DHT22;66564;42.482;25.548;2024-01-30T06:56:56;1.72;61.44
77467;DHT22;66564;42.482;25.548;2024-01-30T06:59:22;1.79;60.86
77467;DHT22;66564;42.482;25.548;2024-01-30T07:01:48;1.95;59.83
77467;DHT22;66564;42.482;25.548;2024-01-30T07:04:13;1.96;59.58
77467;DHT22;66564;42.482;25.548;2024-01-30T07:06:39;1.99;59.27
77467;DHT22;66564;42.482;25.548;2024-01-30T07:09:04;2.12;58.97
77467;DHT22;66564;42.482;25.548;2024-01-30T07:11:30;2.16;58.71
77467;DHT22;66564;42.482;25.548;2024-01-30T07:13:56;2.22;58.37
77467;DHT22;66564;42.482;25.548;2024-01-30T07:16:21;2.23;58.53
77467;DHT22;66564;42.482;25.548;2024-01-30T07:18:48;2.18;58.14
77467;DHT22;66564;42.482;25.548;2024-01-30T07:21:14;2.18;58.37
77467;DHT22;66564;42.482;25.548;2024-01-30T07:23:40;2.23;58.67
77467;DHT22;66564;42.482;25.548;2024-01-30T07:26:07;2.51;58.40
77467;DHT22;66564;42.482;25.548;2024-01-30T07:28:34;2.91;58.66
77467;DHT22;66564;42.482;25.548;2024-01-30T07:31:00;3.29;57.10
77467;DHT22;66564;42.482;25.548;2024-01-30T07:33:26;3.75;58.17
77467;DHT22;66564;42.482;25.548;2024-01-30T07:35:54;4.17;55.62
77467;DHT22;66564;42.482;25.548;2024-01-30T07:38:20;4.62;55.00
77467;DHT22;66564;42.482;25.548;2024-01-30T07:40:46;4.98;53.39
77467;DHT22;66564;42.482;25.548;2024-01-30T07:43:11;5.28;51.75
77467;DHT22;66564;42.482;25.548;2024-01-30T07:45:37;5.64;50.92
77467;DHT22;66564;42.482;25.548;2024-01-30T07:48:05;5.78;49.81
77467;DHT22;66564;42.482;25.548;2024-01-30T07:50:30;5.96;48.30
77467;DHT22;66564;42.482;25.548;2024-01-30T07:52:56;6.10;47.85
77467;DHT22;66564;42.482;25.548;2024-01-30T07:55:25;5.84;46.72
77467;DHT22;66564;42.482;25.548;2024-01-30T07:57:53;5.70;47.53
77467;DHT22;66564;42.482;25.548;2024-01-30T08:00:20;5.63;47.28
77467;DHT22;66564;42.482;25.548;2024-01-30T08:02:46;5.74;47.35
77467;DHT22;66564;42.482;25.548;2024-01-30T08:05:11;5.67;47.50
77467;DHT22;66564;42.482;25.548;2024-01-30T08:07:37;5.77;47.50
77467;DHT22;66564;42.482;25.548;2024-01-30T08:10:03;5.83;47.29
77467;DHT22;66564;42.482;25.548;2024-01-30T08:12:30;5.81;46.90
77467;DHT22;66564;42.482;25.548;2024-01-30T08:14:56;5.83;46.83
77467;DHT22;66564;42.482;25.548;2024-01-30T08:17:21;5.76;46.56
77467;DHT22;66564;42.482;25.548;2024-01-30T08:19:47;5.83;47.61
77467;DHT22;66564;42.482;25.548;2024-01-30T08:22:12;6.00;47.83
77467;DHT22;66564;42.482;25.548;2024-01-30T08:24:38;6.07;46.67
77467;DHT22;66564;42.482;25.548;2024-01-30T08:27:06;6.25;46.41
77467;DHT22;66564;42.482;25.548;2024-01-30T08:29:32;6.24;45.13
77467;DHT22;66564;42.482;25.548;2024-01-30T08:31:57;6.14;44.38
77467;DHT22;66564;42.482;25.548;2024-01-30T08:34:24;5.94;44.74
77467;DHT22;66564;42.482;25.548;2024-01-30T08:36:49;5.71;45.44
77467;DHT22;66564;42.482;25.548;2024-01-30T08:39:15;5.54;45.57
77467;DHT22;66564;42.482;25.548;2024-01-30T08:41:40;5.44;46.14
77467;DHT22;66564;42.482;25.548;2024-01-30T08:44:07;5.46;46.36
77467;DHT22;66564;42.482;25.548;2024-01-30T08:46:33;5.36;46.53
77467;DHT22;66564;42.482;25.548;2024-01-30T08:48:59;5.18;46.95
77467;DHT22;66564;42.482;25.548;2024-01-30T08:51:24;5.15;46.94
77467;DHT22;66564;42.482;25.548;2024-01-30T08:53:50;5.12;46.87
77467;DHT22;66564;42.482;25.548;2024-01-30T08:56:15;4.99;47.27
77467;DHT22;66564;42.482;25.548;2024-01-30T08:58:41;4.88;47.47
77467;DHT22;66564;42.482;25.548;2024-01-30T09:01:07;4.79;47.77
77467;DHT22;66564;42.482;25.548;2024-01-30T09:03:32;4.64;48.08
77467;DHT22;66564;42.482;25.548;2024-01-30T09:05:58;4.61;48.19
77467;DHT22;66564;42.482;25.548;2024-01-30T09:08:23;4.54;48.44
77467;DHT22;66564;42.482;25.548;2024-01-30T09:10:49;4.50;48.33
77467;DHT22;66564;42.482;25.548;2024-01-30T09:13:15;4.27;48.79
77467;DHT22;66564;42.482;25.548;2024-01-30T09:15:41;4.23;48.90
77467;DHT22;66564;42.482;25.548;2024-01-30T09:18:07;4.17;49.02
77467;DHT22;66564;42.482;25.548;2024-01-30T09:20:32;4.17;48.74
77467;DHT22;66564;42.482;25.548;2024-01-30T09:22:58;4.10;49.30
77467;DHT22;66564;42.482;25.548;2024-01-30T09:25:24;3.90;49.07
77467;DHT22;66564;42.482;25.548;2024-01-30T09:27:49;3.83;49.58
77467;DHT22;66564;42.482;25.548;2024-01-30T09:30:15;3.87;50.16
77467;DHT22;66564;42.482;25.548;2024-01-30T09:32:40;3.92;49.94
77467;DHT22;66564;42.482;25.548;2024-01-30T09:35:07;3.96;49.68
77467;DHT22;66564;42.482;25.548;2024-01-30T09:37:33;3.93;50.01
77467;DHT22;66564;42.482;25.548;2024-01-30T09:39:58;3.93;49.59
77467;DHT22;66564;42.482;25.548;2024-01-30T09:44:50;3.63;50.69
77467;DHT22;66564;42.482;25.548;2024-01-30T09:47:18;3.69;50.65
77467;DHT22;66564;42.482;25.548;2024-01-30T09:49:44;3.59;51.29
77467;DHT22;66564;42.482;25.548;2024-01-30T09:52:09;3.52;51.50
77467;DHT22;66564;42.482;25.548;2024-01-30T09:54:36;3.49;51.67
77467;DHT22;66564;42.482;25.548;2024-01-30T09:57:03;3.42;51.77
77467;DHT22;66564;42.482;25.548;2024-01-30T09:59:29;3.35;52.37
77467;DHT22;66564;42.482;25.548;2024-01-30T10:01:55;3.46;51.96
77467;DHT22;66564;42.482;25.548;2024-01-30T10:04:22;3.31;52.34
77467;DHT22;66564;42.482;25.548;2024-01-30T10:06:47;3.18;52.97
77467;DHT22;66564;42.482;25.548;2024-01-30T10:09:13;3.01;53.47
77467;DHT22;66564;42.482;25.548;2024-01-30T10:11:39;3.05;53.89
77467;DHT22;66564;42.482;25.548;2024-01-30T10:14:04;2.74;54.46
77467;DHT22;66564;42.482;25.548;2024-01-30T10:16:30;2.85;54.26
77467;DHT22;66564;42.482;25.548;2024-01-30T10:18:55;2.91;54.62
77467;DHT22;66564;42.482;25.548;2024-01-30T10:21:21;2.93;54.43
77467;DHT22;66564;42.482;25.548;2024-01-30T10:23:46;2.95;54.10
77467;DHT22;66564;42.482;25.548;2024-01-30T10:26:12;2.91;54.85
77467;DHT22;66564;42.482;25.548;2024-01-30T10:28:38;3.08;54.66
77467;DHT22;66564;42.482;25.548;2024-01-30T10:31:03;3.14;54.45
77467;DHT22;66564;42.482;25.548;2024-01-30T10:33:32;2.90;54.69
77467;DHT22;66564;42.482;25.548;2024-01-30T10:36:01;3.17;54.38
77467;DHT22;66564;42.482;25.548;2024-01-30T10:38:31;3.28;53.83
77467;DHT22;66564;42.482;25.548;2024-01-30T10:40:58;3.31;53.39
77467;DHT22;66564;42.482;25.548;2024-01-30T10:43:36;3.32;53.53
77467;DHT22;66564;42.482;25.548;2024-01-30T10:46:20;3.29;53.31
77467;DHT22;66564;42.482;25.548;2024-01-30T10:48:55;3.32;53.15
77467;DHT22;66564;42.482;25.548;2024-01-30T10:51:22;3.27;53.31
77467;DHT22;66564;42.482;25.548;2024-01-30T10:53:49;3.35;52.91
77467;DHT22;66564;42.482;25.548;2024-01-30T10:56:15;3.18;52.84
77467;DHT22;66564;42.482;25.548;2024-01-30T10:58:41;3.09;53.19
77467;DHT22;66564;42.482;25.548;2024-01-30T11:01:07;3.15;53.54
77467;DHT22;66564;42.482;25.548;2024-01-30T11:03:34;3.24;53.42
77467;DHT22;66564;42.482;25.548;2024-01-30T11:06:02;3.27;53.28
77467;DHT22;66564;42.482;25.548;2024-01-30T11:08:27;3.35;53.06
77467;DHT22;66564;42.482;25.548;2024-01-30T11:10:58;3.39;52.65
77467;DHT22;66564;42.482;25.548;2024-01-30T11:13:30;3.45;52.69
77467;DHT22;66564;42.482;25.548;2024-01-30T11:16:03;3.45;52.45
77467;DHT22;66564;42.482;25.548;2024-01-30T11:18:29;3.51;52.50
77467;DHT22;66564;42.482;25.548;2024-01-30T11:20:59;3.49;52.41
77467;DHT22;66564;42.482;25.548;2024-01-30T11:23:30;3.42;52.58
77467;DHT22;66564;42.482;25.548;2024-01-30T11:25:56;3.49;52.65
77467;DHT22;66564;42.482;25.548;2024-01-30T11:28:22;3.48;52.68
77467;DHT22;66564;42.482;25.548;2024-01-30T11:30:48;3.55;52.69
77467;DHT22;66564;42.482;25.548;2024-01-30T11:33:27;3.56;51.96
77467;DHT22;66564;42.482;25.548;2024-01-30T11:36:00;3.38;52.59
77467;DHT22;66564;42.482;25.548;2024-01-30T11:38:27;3.35;52.73
77467;DHT22;66564;42.482;25.548;2024-01-30T11:40:54;3.36;53.02
77467;DHT22;66564;42.482;25.548;2024-01-30T11:43:20;3.29;53.40
77467;DHT22;66564;42.482;25.548;2024-01-30T11:45:46;3.35;53.37
77467;DHT22;66564;42.482;25.548;2024-01-30T11:48:12;3.32;53.63
77467;DHT22;66564;42.482;25.548;2024-01-30T11:50:39;3.46;53.31
77467;DHT22;66564;42.482;25.548;2024-01-30T11:53:05;3.46;53.18
77467;DHT22;66564;42.482;25.548;2024-01-30T11:55:31;3.43;53.43
77467;DHT22;66564;42.482;25.548;2024-01-30T11:57:57;3.52;52.84
77467;DHT22;66564;42.482;25.548;2024-01-30T12:00:23;3.56;52.89
77467;DHT22;66564;42.482;25.548;2024-01-30T12:02:53;3.62;52.64
77467;DHT22;66564;42.482;25.548;2024-01-30T12:05:25;3.54;52.86
77467;DHT22;66564;42.482;25.548;2024-01-30T12:07:51;3.45;52.93
77467;DHT22;66564;42.482;25.548;2024-01-30T12:10:17;3.49;53.18
77467;DHT22;66564;42.482;25.548;2024-01-30T12:12:45;3.62;52.96
77467;DHT22;66564;42.482;25.548;2024-01-30T12:15:12;3.63;52.41
77467;DHT22;66564;42.482;25.548;2024-01-30T12:17:38;3.66;52.69
77467;DHT22;66564;42.482;25.548;2024-01-30T12:20:08;3.72;52.39
77467;DHT22;66564;42.482;25.548;2024-01-30T12:22:41;3.72;52.37
77467;DHT22;66564;42.482;25.548;2024-01-30T12:25:12;3.80;52.07
77467;DHT22;66564;42.482;25.548;2024-01-30T12:27:39;3.82;52.16
77467;DHT22;66564;42.482;25.548;2024-01-30T12:30:06;3.87;52.16
77467;DHT22;66564;42.482;25.548;2024-01-30T12:32:34;3.92;52.26
77467;DHT22;66564;42.482;25.548;2024-01-30T12:35:00;4.04;51.73
77467;DHT22;66564;42.482;25.548;2024-01-30T12:37:25;4.07;51.60
77467;DHT22;66564;42.482;25.548;2024-01-30T12:39:52;4.09;51.35
77467;DHT22;66564;42.482;25.548;2024-01-30T12:42:20;4.09;51.41
77467;DHT22;66564;42.482;25.548;2024-01-30T12:44:49;4.10;51.57
77467;DHT22;66564;42.482;25.548;2024-01-30T12:47:15;4.06;51.12
77467;DHT22;66564;42.482;25.548;2024-01-30T12:49:45;4.11;51.08
77467;DHT22;66564;42.482;25.548;2024-01-30T12:52:16;4.10;51.32
77467;DHT22;66564;42.482;25.548;2024-01-30T12:54:42;4.07;51.27
77467;DHT22;66564;42.482;25.548;2024-01-30T12:57:08;3.99;50.94
77467;DHT22;66564;42.482;25.548;2024-01-30T12:59:33;3.99;50.97
77467;DHT22;66564;42.482;25.548;2024-01-30T13:02:00;4.06;51.23
77467;DHT22;66564;42.482;25.548;2024-01-30T13:04:27;4.03;50.96
77467;DHT22;66564;42.482;25.548;2024-01-30T13:06:52;4.03;51.31
77467;DHT22;66564;42.482;25.548;2024-01-30T13:09:18;4.18;50.98
77467;DHT22;66564;42.482;25.548;2024-01-30T13:11:43;4.23;51.33
77467;DHT22;66564;42.482;25.548;2024-01-30T13:14:09;4.38;51.22
77467;DHT22;66564;42.482;25.548;2024-01-30T13:16:34;4.53;51.25
77467;DHT22;66564;42.482;25.548;2024-01-30T13:19:00;4.61;50.62
77467;DHT22;66564;42.482;25.548;2024-01-30T13:21:27;4.67;49.88
77467;DHT22;66564;42.482;25.548;2024-01-30T13:23:53;4.79;49.85
77467;DHT22;66564;42.482;25.548;2024-01-30T13:26:20;4.82;49.78
77467;DHT22;66564;42.482;25.548;2024-01-30T13:28:46;4.95;50.14
77467;DHT22;66564;42.482;25.548;2024-01-30T13:31:12;5.08;48.88
77467;DHT22;66564;42.482;25.548;2024-01-30T13:33:38;5.02;48.59
77467;DHT22;66564;42.482;25.548;2024-01-30T13:36:03;5.09;49.07
77467;DHT22;66564;42.482;25.548;2024-01-30T13:38:29;5.29;49.02
77467;DHT22;66564;42.482;25.548;2024-01-30T13:40:54;5.32;47.52
77467;DHT22;66564;42.482;25.548;2024-01-30T13:43:19;4.98;47.83
77467;DHT22;66564;42.482;25.548;2024-01-30T13:45:45;5.15;47.86
77467;DHT22;66564;42.482;25.548;2024-01-30T13:48:11;5.21;47.96
77467;DHT22;66564;42.482;25.548;2024-01-30T13:50:37;5.25;47.62
77467;DHT22;66564;42.482;25.548;2024-01-30T13:53:03;5.22;47.31
77467;DHT22;66564;42.482;25.548;2024-01-30T13:55:29;5.19;47.13
77467;DHT22;66564;42.482;25.548;2024-01-30T13:57:55;4.81;46.84
77467;DHT22;66564;42.482;25.548;2024-01-30T14:00:21;4.85;47.94
77467;DHT22;66564;42.482;25.548;2024-01-30T14:02:48;4.82;47.79
77467;DHT22;66564;42.482;25.548;2024-01-30T14:05:13;4.69;47.56
77467;DHT22;66564;42.482;25.548;2024-01-30T14:07:40;4.69;47.56
77467;DHT22;66564;42.482;25.548;2024-01-30T14:10:06;4.62;47.70
77467;DHT22;66564;42.482;25.548;2024-01-30T14:12:32;4.50;47.97
77467;DHT22;66564;42.482;25.548;2024-01-30T14:14:57;4.46;47.98
77467;DHT22;66564;42.482;25.548;2024-01-30T14:17:23;4.40;48.21
77467;DHT22;66564;42.482;25.548;2024-01-30T14:19:48;4.34;48.42
77467;DHT22;66564;42.482;25.548;2024-01-30T14:22:13;4.23;48.84
77467;DHT22;66564;42.482;25.548;2024-01-30T14:24:39;4.23;49.21
77467;DHT22;66564;42.482;25.548;2024-01-30T14:27:04;4.18;48.50
77467;DHT22;66564;42.482;25.548;2024-01-30T14:29:30;4.06;48.90
77467;DHT22;66564;42.482;25.548;2024-01-30T14:31:55;4.06;49.19
77467;DHT22;66564;42.482;25.548;2024-01-30T14:34:23;3.97;49.02
77467;DHT22;66564;42.482;25.548;2024-01-30T14:36:48;3.92;49.14
77467;DHT22;66564;42.482;25.548;2024-01-30T14:39:14;3.82;49.48
77467;DHT22;66564;42.482;25.548;2024-01-30T14:41:39;3.83;49.87
77467;DHT22;66564;42.482;25.548;2024-01-30T14:44:05;3.82;49.56
77467;DHT22;66564;42.482;25.548;2024-01-30T14:46:31;3.75;49.81
77467;DHT22;66564;42.482;25.548;2024-01-30T14:48:56;3.70;49.98
77467;DHT22;66564;42.482;25.548;2024-01-30T14:51:23;3.66;50.13
77467;DHT22;66564;42.482;25.548;2024-01-30T14:53:48;3.59;50.43
77467;DHT22;66564;42.482;25.548;2024-01-30T14:56:14;3.49;50.65
77467;DHT22;66564;42.482;25.548;2024-01-30T14:58:39;3.48;50.68
77467;DHT22;66564;42.482;25.548;2024-01-30T15:01:05;3.38;50.83
77467;DHT22;66564;42.482;25.548;2024-01-30T15:03:30;3.31;50.97
77467;DHT22;66564;42.482;25.548;2024-01-30T15:05:56;3.25;51.44
77467;DHT22;66564;42.482;25.548;2024-01-30T15:08:21;3.25;51.34
77467;DHT22;66564;42.482;25.548;2024-01-30T15:10:47;3.05;51.18
77467;DHT22;66564;42.482;25.548;2024-01-30T15:13:12;2.97;51.72
77467;DHT22;66564;42.482;25.548;2024-01-30T15:15:38;2.95;51.87
77467;DHT22;66564;42.482;25.548;2024-01-30T15:18:04;2.95;51.98
77467;DHT22;66564;42.482;25.548;2024-01-30T15:20:29;2.88;52.17
77467;DHT22;66564;42.482;25.548;2024-01-30T15:22:57;2.90;52.31
77467;DHT22;66564;42.482;25.548;2024-01-30T15:25:25;2.94;52.19